sensor_id;sensor_type;location;lat;lon;timestamp;temperature;humidity
12872;DHT22;6504;53.766;9.626;2022-10-01T00:02:04;10.70;99.90
12872;DHT22;6504;53.766;9.626;2022-10-01T00:04:34;10.70;99.90
12872;DHT22;6504;53.766;9.626;2022-10-01T00:07:05;10.70;99.90
12872;DHT22;6504;53.766;9.626;2022-10-01T00:09:36;10.70;99.90
12872;DHT22;6504;53.766;9.626;2022-10-01T00:12:05;10.70;99.90
12872;DHT22;6504;53.766;9.626;2022-10-01T00:14:37;10.70;99.90
12872;DHT22;6504;53.766;9.626;2022-10-01T00:17:05;10.70;99.90
12872;DHT22;6504;53.766;9.626;2022-10-01T00:19:34;10.70;99.90
12872;DHT22;6504;53.766;9.626;2022-10-01T00:22:03;10.70;99.90
12872;DHT22;6504;53.766;9.626;2022-10-01T00:24:32;10.70;99.90
12872;DHT22;6504;53.766;9.626;2022-10-01T00:27:06;10.60;99.90
12872;DHT22;6504;53.766;9.626;2022-10-01T00:29:37;10.60;99.90
12872;DHT22;6504;53.766;9.626;2022-10-01T00:32:08;10.60;99.90
12872;DHT22;6504;53.766;9.626;2022-10-01T00:34:36;10.60;99.90
12872;DHT22;6504;53.766;9.626;2022-10-01T00:37:06;10.60;99.90
12872;DHT22;6504;53.766;9.626;2022-10-01T00:39:39;10.60;99.90
12872;DHT22;6504;53.766;9.626;2022-10-01T00:42:16;10.60;99.90
12872;DHT22;6504;53.766;9.626;2022-10-01T00:44:45;10.60;99.90
12872;DHT22;6504;53.766;9.626;2022-10-01T00:47:22;10.50;99.90
12872;DHT22;6504;53.766;9.626;2022-10-01T00:49:55;10.60;99.90
12872;DHT22;6504;53.766;9.626;2022-10-01T00:52:30;10.60;99.90
12872;DHT22;6504;53.766;9.626;2022-10-01T00:55:08;10.50;99.90
12872;DHT22;6504;53.766;9.626;2022-10-01T00:57:41;10.50;99.90
12872;DHT22;6504;53.766;9.626;2022-10-01T01:00:12;10.50;99.90
12872;DHT22;6504;53.766;9.626;2022-10-01T01:02:41;10.50;99.90
12872;DHT22;6504;53.766;9.626;2022-10-01T01:05:09;10.60;99.90
12872;DHT22;6504;53.766;9.626;2022-10-01T01:07:43;10.50;99.90
12872;DHT22;6504;53.766;9.626;2022-10-01T01:10:12;10.50;99.90
12872;DHT22;6504;53.766;9.626;2022-10-01T01:12:54;10.50;99.90
12872;DHT22;6504;53.766;9.626;2022-10-01T01:15:29;10.50;99.90
12872;DHT22;6504;53.766;9.626;2022-10-01T01:18:05;10.50;99.90
12872;DHT22;6504;53.766;9.626;2022-10-01T01:21:05;10.50;99.90
12872;DHT22;6504;53.766;9.626;2022-10-01T01:23:55;10.50;99.90
12872;DHT22;6504;53.766;9.626;2022-10-01T01:26:32;10.50;99.90
12872;DHT22;6504;53.766;9.626;2022-10-01T01:29:10;10.50;99.90
12872;DHT22;6504;53.766;9.626;2022-10-01T01:31:43;10.50;99.90
12872;DHT22;6504;53.766;9.626;2022-10-01T01:34:19;10.60;99.90
12872;DHT22;6504;53.766;9.626;2022-10-01T01:36:53;10.50;99.90
12872;DHT22;6504;53.766;9.626;2022-10-01T01:39:29;10.60;99.90
12872;DHT22;6504;53.766;9.626;2022-10-01T01:42:03;10.60;99.90
12872;DHT22;6504;53.766;9.626;2022-10-01T01:44:40;10.60;99.90
12872;DHT22;6504;53.766;9.626;2022-10-01T01:47:10;10.60;99.90
12872;DHT22;6504;53.766;9.626;2022-10-01T01:49:39;10.60;99.90
12872;DHT22;6504;53.766;9.626;2022-10-01T01:52:10;10.60;99.90
12872;DHT22;6504;53.766;9.626;2022-10-01T01:54:39;10.60;99.90
12872;DHT22;6504;53.766;9.626;2022-10-01T01:57:08;10.60;99.90
12872;DHT22;6504;53.766;9.626;2022-10-01T01:59:42;10.60;99.90
12872;DHT22;6504;53.766;9.626;2022-10-01T02:02:11;10.60;99.90
12872;DHT22;6504;53.766;9.626;2022-10-01T02:04:44;10.60;99.90
12872;DHT22;6504;53.766;9.626;2022-10-01T02:07:30;10.60;99.90
12872;DHT22;6504;53.766;9.626;2022-10-01T02:10:09;10.60;99.90
12872;DHT22;6504;53.766;9.626;2022-10-01T02:12:52;10.60;99.90
12872;DHT22;6504;53.766;9.626;2022-10-01T02:15:34;10.60;99.90
12872;DHT22;6504;53.766;9.626;2022-10-01T02:18:08;10.70;99.90
12872;DHT22;6504;53.766;9.626;2022-10-01T02:20:41;10.70;99.90
12872;DHT22;6504;53.766;9.626;2022-10-01T02:23:16;10.70;99.90
12872;DHT22;6504;53.766;9.626;2022-10-01T02:25:49;10.70;99.90
12872;DHT22;6504;53.766;9.626;2022-10-01T02:28:21;10.70;99.90
12872;DHT22;6504;53.766;9.626;2022-10-01T02:30:57;10.70;99.90
12872;DHT22;6504;53.766;9.626;2022-10-01T02:33:30;10.70;99.90
12872;DHT22;6504;53.766;9.626;2022-10-01T02:35:59;10.70;99.90
12872;DHT22;6504;53.766;9.626;2022-10-01T02:38:28;10.70;99.90
12872;DHT22;6504;53.766;9.626;2022-10-01T02:40:59;10.70;99.90
12872;DHT22;6504;53.766;9.626;2022-10-01T02:43:36;10.70;99.90
12872;DHT22;6504;53.766;9.626;2022-10-01T02:46:15;10.70;99.90
12872;DHT22;6504;53.766;9.626;2022-10-01T02:48:48;10.70;99.90
12872;DHT22;6504;53.766;9.626;2022-10-01T02:51:27;10.70;99.90
12872;DHT22;6504;53.766;9.626;2022-10-01T02:54:00;10.70;99.90
12872;DHT22;6504;53.766;9.626;2022-10-01T02:56:30;10.70;99.90
12872;DHT22;6504;53.766;9.626;2022-10-01T02:59:21;10.70;99.90
12872;DHT22;6504;53.766;9.626;2022-10-01T03:01:53;10.70;99.90
12872;DHT22;6504;53.766;9.626;2022-10-01T03:04:21;10.80;99.90
12872;DHT22;6504;53.766;9.626;2022-10-01T03:06:50;10.80;99.90
12872;DHT22;6504;53.766;9.626;2022-10-01T03:09:18;10.80;99.90
12872;DHT22;6504;53.766;9.626;2022-10-01T03:11:46;10.80;99.90
12872;DHT22;6504;53.766;9.626;2022-10-01T03:14:14;10.80;99.90
12872;DHT22;6504;53.766;9.626;2022-10-01T03:16:42;10.80;99.90
12872;DHT22;6504;53.766;9.626;2022-10-01T03:19:11;10.80;99.90
12872;DHT22;6504;53.766;9.626;2022-10-01T03:21:40;10.80;99.90
12872;DHT22;6504;53.766;9.626;2022-10-01T03:24:08;10.80;99.90
12872;DHT22;6504;53.766;9.626;2022-10-01T03:26:36;10.80;99.90
12872;DHT22;6504;53.766;9.626;2022-10-01T03:29:07;10.80;99.90
12872;DHT22;6504;53.766;9.626;2022-10-01T03:31:36;10.80;99.90
12872;DHT22;6504;53.766;9.626;2022-10-01T03:34:05;10.80;99.90
12872;DHT22;6504;53.766;9.626;2022-10-01T03:36:34;10.90;99.90
12872;DHT22;6504;53.766;9.626;2022-10-01T03:39:03;10.90;99.90
12872;DHT22;6504;53.766;9.626;2022-10-01T03:41:32;10.80;99.90
12872;DHT22;6504;53.766;9.626;2022-10-01T03:44:01;10.80;99.90
12872;DHT22;6504;53.766;9.626;2022-10-01T03:46:29;10.80;99.90
12872;DHT22;6504;53.766;9.626;2022-10-01T03:48:58;10.80;99.90
12872;DHT22;6504;53.766;9.626;2022-10-01T03:51:26;10.80;99.90
12872;DHT22;6504;53.766;9.626;2022-10-01T03:53:57;10.80;99.90
12872;DHT22;6504;53.766;9.626;2022-10-01T03:56:25;10.70;99.90
12872;DHT22;6504;53.766;9.626;2022-10-01T03:58:53;10.70;99.90
12872;DHT22;6504;53.766;9.626;2022-10-01T04:01:21;10.70;99.90
12872;DHT22;6504;53.766;9.626;2022-10-01T04:03:53;10.70;99.90
12872;DHT22;6504;53.766;9.626;2022-10-01T04:06:21;10.70;99.90
12872;DHT22;6504;53.766;9.626;2022-10-01T04:08:49;10.70;99.90
12872;DHT22;6504;53.766;9.626;2022-10-01T04:11:18;10.70;99.90
12872;DHT22;6504;53.766;9.626;2022-10-01T04:13:47;10.70;99.90
12872;DHT22;6504;53.766;9.626;2022-10-01T04:16:19;10.60;99.90
12872;DHT22;6504;53.766;9.626;2022-10-01T04:18:47;10.60;99.90
12872;DHT22;6504;53.766;9.626;2022-10-01T04:21:16;10.60;99.90
12872;DHT22;6504;53.766;9.626;2022-10-01T04:23:44;10.50;99.90
12872;DHT22;6504;53.766;9.626;2022-10-01T04:26:13;10.50;99.90
12872;DHT22;6504;53.766;9.626;2022-10-01T04:28:44;10.50;99.90
12872;DHT22;6504;53.766;9.626;2022-10-01T04:31:13;10.50;99.90
12872;DHT22;6504;53.766;9.626;2022-10-01T04:34:00;10.50;99.90
12872;DHT22;6504;53.766;9.626;2022-10-01T04:36:31;10.50;99.90
12872;DHT22;6504;53.766;9.626;2022-10-01T04:38:59;10.50;99.90
12872;DHT22;6504;53.766;9.626;2022-10-01T04:41:30;10.50;99.90
12872;DHT22;6504;53.766;9.626;2022-10-01T04:44:00;10.50;99.90
12872;DHT22;6504;53.766;9.626;2022-10-01T04:46:29;10.50;99.90
12872;DHT22;6504;53.766;9.626;2022-10-01T04:48:57;10.50;99.90
12872;DHT22;6504;53.766;9.626;2022-10-01T04:51:29;10.50;99.90
12872;DHT22;6504;53.766;9.626;2022-10-01T04:53:58;10.40;99.90
12872;DHT22;6504;53.766;9.626;2022-10-01T04:56:26;10.40;99.90
12872;DHT22;6504;53.766;9.626;2022-10-01T04:58:54;10.40;99.90
12872;DHT22;6504;53.766;9.626;2022-10-01T05:01:26;10.40;99.90
12872;DHT22;6504;53.766;9.626;2022-10-01T05:03:54;10.40;99.90
12872;DHT22;6504;53.766;9.626;2022-10-01T05:06:22;10.40;99.90
12872;DHT22;6504;53.766;9.626;2022-10-01T05:08:50;10.40;99.90
12872;DHT22;6504;53.766;9.626;2022-10-01T05:11:18;10.30;99.90
12872;DHT22;6504;53.766;9.626;2022-10-01T05:13:47;10.30;99.90
12872;DHT22;6504;53.766;9.626;2022-10-01T05:16:15;10.30;99.90
12872;DHT22;6504;53.766;9.626;2022-10-01T05:18:47;10.30;99.90
12872;DHT22;6504;53.766;9.626;2022-10-01T05:21:15;10.30;99.90
12872;DHT22;6504;53.766;9.626;2022-10-01T05:23:46;10.30;99.90
12872;DHT22;6504;53.766;9.626;2022-10-01T05:26:15;10.30;99.90
12872;DHT22;6504;53.766;9.626;2022-10-01T05:28:43;10.30;99.90
12872;DHT22;6504;53.766;9.626;2022-10-01T05:31:13;10.30;99.90
12872;DHT22;6504;53.766;9.626;2022-10-01T05:33:42;10.30;99.90
12872;DHT22;6504;53.766;9.626;2022-10-01T05:36:11;10.30;99.90
12872;DHT22;6504;53.766;9.626;2022-10-01T05:38:39;10.30;99.90
12872;DHT22;6504;53.766;9.626;2022-10-01T05:41:10;10.30;99.90
12872;DHT22;6504;53.766;9.626;2022-10-01T05:43:38;10.30;99.90
12872;DHT22;6504;53.766;9.626;2022-10-01T05:46:06;10.30;99.90
12872;DHT22;6504;53.766;9.626;2022-10-01T05:48:36;10.30;99.90
12872;DHT22;6504;53.766;9.626;2022-10-01T05:51:04;10.30;99.90
12872;DHT22;6504;53.766;9.626;2022-10-01T05:53:35;10.30;99.90
12872;DHT22;6504;53.766;9.626;2022-10-01T05:56:04;10.30;99.90
12872;DHT22;6504;53.766;9.626;2022-10-01T05:58:33;10.30;99.90
12872;DHT22;6504;53.766;9.626;2022-10-01T06:01:03;10.30;99.90
12872;DHT22;6504;53.766;9.626;2022-10-01T06:03:32;10.30;99.90
12872;DHT22;6504;53.766;9.626;2022-10-01T06:06:05;10.30;99.90
12872;DHT22;6504;53.766;9.626;2022-10-01T06:08:36;10.30;99.90
12872;DHT22;6504;53.766;9.626;2022-10-01T06:11:06;10.30;99.90
12872;DHT22;6504;53.766;9.626;2022-10-01T06:13:35;10.30;99.90
12872;DHT22;6504;53.766;9.626;2022-10-01T06:16:11;10.30;99.90
12872;DHT22;6504;53.766;9.626;2022-10-01T06:18:39;10.30;99.90
12872;DHT22;6504;53.766;9.626;2022-10-01T06:21:08;10.30;99.90
12872;DHT22;6504;53.766;9.626;2022-10-01T06:23:38;10.30;99.90
12872;DHT22;6504;53.766;9.626;2022-10-01T06:26:06;10.30;99.90
12872;DHT22;6504;53.766;9.626;2022-10-01T06:28:34;10.30;99.90
12872;DHT22;6504;53.766;9.626;2022-10-01T06:31:02;10.30;99.90
12872;DHT22;6504;53.766;9.626;2022-10-01T06:33:31;10.30;99.90
12872;DHT22;6504;53.766;9.626;2022-10-01T06:36:03;10.30;99.90
12872;DHT22;6504;53.766;9.626;2022-10-01T06:38:34;10.30;99.90
12872;DHT22;6504;53.766;9.626;2022-10-01T06:41:03;10.30;99.90
12872;DHT22;6504;53.766;9.626;2022-10-01T06:43:32;10.30;99.90
12872;DHT22;6504;53.766;9.626;2022-10-01T06:46:00;10.30;99.90
12872;DHT22;6504;53.766;9.626;2022-10-01T06:48:31;10.30;99.90
12872;DHT22;6504;53.766;9.626;2022-10-01T06:51:04;10.30;99.90
12872;DHT22;6504;53.766;9.626;2022-10-01T06:53:35;10.30;99.90
12872;DHT22;6504;53.766;9.626;2022-10-01T06:56:05;10.30;99.90
12872;DHT22;6504;53.766;9.626;2022-10-01T06:58:41;10.30;99.90
12872;DHT22;6504;53.766;9.626;2022-10-01T07:01:09;10.30;99.90
12872;DHT22;6504;53.766;9.626;2022-10-01T07:03:40;10.30;99.90
12872;DHT22;6504;53.766;9.626;2022-10-01T07:06:09;10.30;99.90
12872;DHT22;6504;53.766;9.626;2022-10-01T07:08:38;10.30;99.90
12872;DHT22;6504;53.766;9.626;2022-10-01T07:11:07;10.30;99.90
12872;DHT22;6504;53.766;9.626;2022-10-01T07:13:35;10.40;99.90
12872;DHT22;6504;53.766;9.626;2022-10-01T07:16:05;10.40;99.90
12872;DHT22;6504;53.766;9.626;2022-10-01T07:18:33;10.40;99.90
12872;DHT22;6504;53.766;9.626;2022-10-01T07:21:10;10.30;99.90
12872;DHT22;6504;53.766;9.626;2022-10-01T07:23:38;10.40;99.90
12872;DHT22;6504;53.766;9.626;2022-10-01T07:26:08;10.40;99.90
12872;DHT22;6504;53.766;9.626;2022-10-01T07:28:36;10.40;99.90
12872;DHT22;6504;53.766;9.626;2022-10-01T07:31:06;10.30;99.90
12872;DHT22;6504;53.766;9.626;2022-10-01T07:33:37;10.40;99.90
12872;DHT22;6504;53.766;9.626;2022-10-01T07:36:06;10.40;99.90
12872;DHT22;6504;53.766;9.626;2022-10-01T07:38:35;10.40;99.90
12872;DHT22;6504;53.766;9.626;2022-10-01T07:41:08;10.40;99.90
12872;DHT22;6504;53.766;9.626;2022-10-01T07:43:36;10.40;99.90
12872;DHT22;6504;53.766;9.626;2022-10-01T07:46:07;10.40;99.90
12872;DHT22;6504;53.766;9.626;2022-10-01T07:48:35;10.40;99.90
12872;DHT22;6504;53.766;9.626;2022-10-01T07:51:03;10.40;99.90
12872;DHT22;6504;53.766;9.626;2022-10-01T07:53:31;10.40;99.90
12872;DHT22;6504;53.766;9.626;2022-10-01T07:56:00;10.40;99.90
12872;DHT22;6504;53.766;9.626;2022-10-01T07:58:30;10.50;99.90
12872;DHT22;6504;53.766;9.626;2022-10-01T08:01:03;10.50;99.90
12872;DHT22;6504;53.766;9.626;2022-10-01T08:03:31;10.50;99.90
12872;DHT22;6504;53.766;9.626;2022-10-01T08:05:59;10.50;99.90
12872;DHT22;6504;53.766;9.626;2022-10-01T08:08:32;10.50;99.90
12872;DHT22;6504;53.766;9.626;2022-10-01T08:11:01;10.50;99.90
12872;DHT22;6504;53.766;9.626;2022-10-01T08:13:33;10.50;99.90
12872;DHT22;6504;53.766;9.626;2022-10-01T08:16:10;10.60;99.90
12872;DHT22;6504;53.766;9.626;2022-10-01T08:18:38;10.50;99.90
12872;DHT22;6504;53.766;9.626;2022-10-01T08:21:07;10.60;99.90
12872;DHT22;6504;53.766;9.626;2022-10-01T08:23:35;10.60;99.90
12872;DHT22;6504;53.766;9.626;2022-10-01T08:26:06;10.60;99.90
12872;DHT22;6504;53.766;9.626;2022-10-01T08:28:35;10.60;99.90
12872;DHT22;6504;53.766;9.626;2022-10-01T08:31:05;10.60;99.90
12872;DHT22;6504;53.766;9.626;2022-10-01T08:33:35;10.60;99.90
12872;DHT22;6504;53.766;9.626;2022-10-01T08:36:06;10.60;99.90
12872;DHT22;6504;53.766;9.626;2022-10-01T08:38:38;10.60;99.90
12872;DHT22;6504;53.766;9.626;2022-10-01T08:41:21;10.60;99.90
12872;DHT22;6504;53.766;9.626;2022-10-01T08:43:54;10.60;99.90
12872;DHT22;6504;53.766;9.626;2022-10-01T08:46:35;10.60;99.90
12872;DHT22;6504;53.766;9.626;2022-10-01T08:49:11;10.60;99.90
12872;DHT22;6504;53.766;9.626;2022-10-01T08:51:45;10.60;99.90
12872;DHT22;6504;53.766;9.626;2022-10-01T08:54:28;10.60;99.90
12872;DHT22;6504;53.766;9.626;2022-10-01T08:57:08;10.70;99.90
12872;DHT22;6504;53.766;9.626;2022-10-01T08:59:41;10.60;99.90
12872;DHT22;6504;53.766;9.626;2022-10-01T09:02:17;10.70;99.90
12872;DHT22;6504;53.766;9.626;2022-10-01T09:04:52;10.70;99.90
12872;DHT22;6504;53.766;9.626;2022-10-01T09:10:41;10.70;99.90
12872;DHT22;6504;53.766;9.626;2022-10-01T09:16:23;10.70;99.90
12872;DHT22;6504;53.766;9.626;2022-10-01T09:19:04;10.80;99.90
12872;DHT22;6504;53.766;9.626;2022-10-01T09:21:45;10.80;99.90
12872;DHT22;6504;53.766;9.626;2022-10-01T09:24:25;10.80;99.90
12872;DHT22;6504;53.766;9.626;2022-10-01T09:26:59;10.90;99.90
12872;DHT22;6504;53.766;9.626;2022-10-01T09:29:39;10.90;99.90
12872;DHT22;6504;53.766;9.626;2022-10-01T09:32:14;10.90;99.90
12872;DHT22;6504;53.766;9.626;2022-10-01T09:34:51;10.90;99.90
12872;DHT22;6504;53.766;9.626;2022-10-01T09:37:28;11.00;99.90
12872;DHT22;6504;53.766;9.626;2022-10-01T09:40:10;11.10;99.90
12872;DHT22;6504;53.766;9.626;2022-10-01T09:42:41;11.10;99.90
12872;DHT22;6504;53.766;9.626;2022-10-01T09:45:10;11.20;99.90
12872;DHT22;6504;53.766;9.626;2022-10-01T09:47:41;11.20;99.90
12872;DHT22;6504;53.766;9.626;2022-10-01T09:50:14;11.30;99.90
12872;DHT22;6504;53.766;9.626;2022-10-01T09:52:46;11.40;99.90
12872;DHT22;6504;53.766;9.626;2022-10-01T09:55:25;11.50;99.90
12872;DHT22;6504;53.766;9.626;2022-10-01T09:58:01;11.60;99.90
12872;DHT22;6504;53.766;9.626;2022-10-01T10:00:30;11.60;99.90
12872;DHT22;6504;53.766;9.626;2022-10-01T10:03:00;11.70;99.90
12872;DHT22;6504;53.766;9.626;2022-10-01T10:05:29;11.80;99.90
12872;DHT22;6504;53.766;9.626;2022-10-01T10:08:12;11.80;99.90
12872;DHT22;6504;53.766;9.626;2022-10-01T10:10:48;11.90;99.90
12872;DHT22;6504;53.766;9.626;2022-10-01T10:13:21;12.00;99.90
12872;DHT22;6504;53.766;9.626;2022-10-01T10:15:55;12.00;99.90
12872;DHT22;6504;53.766;9.626;2022-10-01T10:18:28;12.10;99.90
12872;DHT22;6504;53.766;9.626;2022-10-01T10:21:02;12.20;99.90
12872;DHT22;6504;53.766;9.626;2022-10-01T10:23:45;12.30;99.90
12872;DHT22;6504;53.766;9.626;2022-10-01T10:26:18;12.40;99.90
12872;DHT22;6504;53.766;9.626;2022-10-01T10:28:47;12.50;99.90
12872;DHT22;6504;53.766;9.626;2022-10-01T10:31:18;12.70;99.90
12872;DHT22;6504;53.766;9.626;2022-10-01T10:33:58;12.80;99.90
12872;DHT22;6504;53.766;9.626;2022-10-01T10:36:29;12.90;99.90
12872;DHT22;6504;53.766;9.626;2022-10-01T10:39:00;12.90;99.90
12872;DHT22;6504;53.766;9.626;2022-10-01T10:41:30;13.00;99.90
12872;DHT22;6504;53.766;9.626;2022-10-01T10:44:01;13.10;99.90
12872;DHT22;6504;53.766;9.626;2022-10-01T10:46:33;13.20;99.90
12872;DHT22;6504;53.766;9.626;2022-10-01T10:49:19;13.30;99.90
12872;DHT22;6504;53.766;9.626;2022-10-01T10:51:49;13.40;99.90
12872;DHT22;6504;53.766;9.626;2022-10-01T10:54:26;13.50;99.90
12872;DHT22;6504;53.766;9.626;2022-10-01T10:56:59;13.60;99.90
12872;DHT22;6504;53.766;9.626;2022-10-01T10:59:32;13.70;99.90
12872;DHT22;6504;53.766;9.626;2022-10-01T11:02:02;13.70;99.90
12872;DHT22;6504;53.766;9.626;2022-10-01T11:04:39;13.80;99.90
12872;DHT22;6504;53.766;9.626;2022-10-01T11:07:18;13.90;99.90
12872;DHT22;6504;53.766;9.626;2022-10-01T11:10:19;14.00;99.90
12872;DHT22;6504;53.766;9.626;2022-10-01T11:16:02;14.30;99.90
12872;DHT22;6504;53.766;9.626;2022-10-01T11:18:58;14.40;99.90
12872;DHT22;6504;53.766;9.626;2022-10-01T11:21:56;14.50;99.90
12872;DHT22;6504;53.766;9.626;2022-10-01T11:24:47;14.70;99.90
12872;DHT22;6504;53.766;9.626;2022-10-01T11:27:23;14.80;99.90
12872;DHT22;6504;53.766;9.626;2022-10-01T11:29:59;14.90;99.90
12872;DHT22;6504;53.766;9.626;2022-10-01T11:32:39;15.10;99.90
12872;DHT22;6504;53.766;9.626;2022-10-01T11:35:32;15.10;99.90
12872;DHT22;6504;53.766;9.626;2022-10-01T11:41:25;15.40;99.90
12872;DHT22;6504;53.766;9.626;2022-10-01T11:43:58;15.50;99.90
12872;DHT22;6504;53.766;9.626;2022-10-01T11:46:35;15.60;99.90
12872;DHT22;6504;53.766;9.626;2022-10-01T11:49:28;15.60;99.90
12872;DHT22;6504;53.766;9.626;2022-10-01T11:52:07;15.50;99.90
12872;DHT22;6504;53.766;9.626;2022-10-01T11:54:54;15.60;99.90
12872;DHT22;6504;53.766;9.626;2022-10-01T11:57:23;15.70;99.90
12872;DHT22;6504;53.766;9.626;2022-10-01T12:00:12;15.80;99.90
12872;DHT22;6504;53.766;9.626;2022-10-01T12:02:49;15.90;99.90
12872;DHT22;6504;53.766;9.626;2022-10-01T12:05:21;15.90;99.90
12872;DHT22;6504;53.766;9.626;2022-10-01T12:07:56;15.90;99.90
12872;DHT22;6504;53.766;9.626;2022-10-01T12:10:36;15.90;99.90
12872;DHT22;6504;53.766;9.626;2022-10-01T12:13:15;15.90;99.90
12872;DHT22;6504;53.766;9.626;2022-10-01T12:15:53;15.80;99.90
12872;DHT22;6504;53.766;9.626;2022-10-01T12:18:27;15.70;99.90
12872;DHT22;6504;53.766;9.626;2022-10-01T12:21:00;15.70;99.90
12872;DHT22;6504;53.766;9.626;2022-10-01T12:23:33;15.70;99.90
12872;DHT22;6504;53.766;9.626;2022-10-01T12:26:09;15.60;99.90
12872;DHT22;6504;53.766;9.626;2022-10-01T12:28:49;15.70;99.90
12872;DHT22;6504;53.766;9.626;2022-10-01T12:31:31;15.70;99.90
12872;DHT22;6504;53.766;9.626;2022-10-01T12:34:11;15.70;99.90
12872;DHT22;6504;53.766;9.626;2022-10-01T12:36:50;15.70;99.90
12872;DHT22;6504;53.766;9.626;2022-10-01T12:39:41;15.70;99.90
12872;DHT22;6504;53.766;9.626;2022-10-01T12:42:25;15.70;99.90
12872;DHT22;6504;53.766;9.626;2022-10-01T12:45:04;15.70;99.90
12872;DHT22;6504;53.766;9.626;2022-10-01T12:47:43;15.60;99.90
12872;DHT22;6504;53.766;9.626;2022-10-01T12:50:21;15.40;99.90
12872;DHT22;6504;53.766;9.626;2022-10-01T12:53:04;15.30;99.90
12872;DHT22;6504;53.766;9.626;2022-10-01T12:55:53;15.10;99.90
12872;DHT22;6504;53.766;9.626;2022-10-01T13:01:52;14.70;99.90
12872;DHT22;6504;53.766;9.626;2022-10-01T13:04:35;14.60;99.90
12872;DHT22;6504;53.766;9.626;2022-10-01T13:07:34;14.50;99.90
12872;DHT22;6504;53.766;9.626;2022-10-01T13:10:15;14.40;99.90
12872;DHT22;6504;53.766;9.626;2022-10-01T13:12:57;14.30;99.90
12872;DHT22;6504;53.766;9.626;2022-10-01T13:15:28;14.20;99.90
12872;DHT22;6504;53.766;9.626;2022-10-01T13:18:07;14.20;99.90
12872;DHT22;6504;53.766;9.626;2022-10-01T13:20:46;14.20;99.90
12872;DHT22;6504;53.766;9.626;2022-10-01T13:23:25;14.20;99.90
12872;DHT22;6504;53.766;9.626;2022-10-01T13:26:00;14.30;99.90
12872;DHT22;6504;53.766;9.626;2022-10-01T13:28:43;14.30;99.90
12872;DHT22;6504;53.766;9.626;2022-10-01T13:31:18;14.30;99.90
12872;DHT22;6504;53.766;9.626;2022-10-01T13:33:56;14.40;99.90
12872;DHT22;6504;53.766;9.626;2022-10-01T13:36:30;14.40;99.90
12872;DHT22;6504;53.766;9.626;2022-10-01T13:39:00;14.40;99.90
12872;DHT22;6504;53.766;9.626;2022-10-01T13:41:30;14.40;99.90
12872;DHT22;6504;53.766;9.626;2022-10-01T13:44:18;14.40;99.90
12872;DHT22;6504;53.766;9.626;2022-10-01T13:46:54;14.40;99.90
12872;DHT22;6504;53.766;9.626;2022-10-01T13:49:29;14.50;99.90
12872;DHT22;6504;53.766;9.626;2022-10-01T13:51:57;14.60;99.90
12872;DHT22;6504;53.766;9.626;2022-10-01T13:54:36;14.60;99.90
12872;DHT22;6504;53.766;9.626;2022-10-01T13:57:10;14.60;99.90
12872;DHT22;6504;53.766;9.626;2022-10-01T13:59:57;14.60;99.90
12872;DHT22;6504;53.766;9.626;2022-10-01T14:02:37;14.60;99.90
12872;DHT22;6504;53.766;9.626;2022-10-01T14:05:24;14.60;99.90
12872;DHT22;6504;53.766;9.626;2022-10-01T14:08:03;14.60;99.90
12872;DHT22;6504;53.766;9.626;2022-10-01T14:10:45;14.70;99.90
12872;DHT22;6504;53.766;9.626;2022-10-01T14:13:35;14.70;99.90
12872;DHT22;6504;53.766;9.626;2022-10-01T14:16:28;14.80;99.90
12872;DHT22;6504;53.766;9.626;2022-10-01T14:19:01;14.80;99.90
12872;DHT22;6504;53.766;9.626;2022-10-01T14:21:44;14.80;99.90
12872;DHT22;6504;53.766;9.626;2022-10-01T14:24:26;14.70;99.90
12872;DHT22;6504;53.766;9.626;2022-10-01T14:27:04;14.70;99.90
12872;DHT22;6504;53.766;9.626;2022-10-01T14:29:48;14.70;99.90
12872;DHT22;6504;53.766;9.626;2022-10-01T14:32:27;14.70;99.90
12872;DHT22;6504;53.766;9.626;2022-10-01T14:35:11;14.70;99.90
12872;DHT22;6504;53.766;9.626;2022-10-01T14:37:48;14.70;99.90
12872;DHT22;6504;53.766;9.626;2022-10-01T14:40:18;14.70;99.90
12872;DHT22;6504;53.766;9.626;2022-10-01T14:42:57;14.80;99.90
12872;DHT22;6504;53.766;9.626;2022-10-01T14:45:26;14.80;99.90
12872;DHT22;6504;53.766;9.626;2022-10-01T14:48:00;14.80;99.90
12872;DHT22;6504;53.766;9.626;2022-10-01T14:50:33;14.90;99.90
12872;DHT22;6504;53.766;9.626;2022-10-01T14:53:03;14.90;99.90
12872;DHT22;6504;53.766;9.626;2022-10-01T14:55:33;14.90;99.90
12872;DHT22;6504;53.766;9.626;2022-10-01T14:58:03;14.90;99.90
12872;DHT22;6504;53.766;9.626;2022-10-01T15:00:32;14.90;99.90
12872;DHT22;6504;53.766;9.626;2022-10-01T15:03:10;14.90;99.90
12872;DHT22;6504;53.766;9.626;2022-10-01T15:05:45;15.00;99.90
12872;DHT22;6504;53.766;9.626;2022-10-01T15:08:18;15.10;99.90
12872;DHT22;6504;53.766;9.626;2022-10-01T15:10:50;15.10;99.90
12872;DHT22;6504;53.766;9.626;2022-10-01T15:13:23;15.10;99.90
12872;DHT22;6504;53.766;9.626;2022-10-01T15:15:54;15.10;99.90
12872;DHT22;6504;53.766;9.626;2022-10-01T15:18:23;15.10;99.90
12872;DHT22;6504;53.766;9.626;2022-10-01T15:20:56;15.10;99.90
12872;DHT22;6504;53.766;9.626;2022-10-01T15:23:27;15.10;99.90
12872;DHT22;6504;53.766;9.626;2022-10-01T15:25:57;15.00;99.90
12872;DHT22;6504;53.766;9.626;2022-10-01T15:28:29;15.00;99.90
12872;DHT22;6504;53.766;9.626;2022-10-01T15:30:59;14.90;99.90
12872;DHT22;6504;53.766;9.626;2022-10-01T15:33:33;14.90;99.90
12872;DHT22;6504;53.766;9.626;2022-10-01T15:36:04;14.80;99.90
12872;DHT22;6504;53.766;9.626;2022-10-01T15:38:34;14.80;99.90
12872;DHT22;6504;53.766;9.626;2022-10-01T15:41:04;14.80;99.90
12872;DHT22;6504;53.766;9.626;2022-10-01T15:43:53;14.80;99.90
12872;DHT22;6504;53.766;9.626;2022-10-01T15:46:31;14.80;99.90
12872;DHT22;6504;53.766;9.626;2022-10-01T15:49:15;14.80;99.90
12872;DHT22;6504;53.766;9.626;2022-10-01T15:51:47;14.80;99.90
12872;DHT22;6504;53.766;9.626;2022-10-01T15:54:41;14.80;99.90
12872;DHT22;6504;53.766;9.626;2022-10-01T15:57:15;14.80;99.90
12872;DHT22;6504;53.766;9.626;2022-10-01T15:59:45;14.80;99.90
12872;DHT22;6504;53.766;9.626;2022-10-01T16:02:19;14.80;99.90
12872;DHT22;6504;53.766;9.626;2022-10-01T16:04:50;14.70;99.90
12872;DHT22;6504;53.766;9.626;2022-10-01T16:07:27;14.70;99.90
12872;DHT22;6504;53.766;9.626;2022-10-01T16:09:59;14.70;99.90
12872;DHT22;6504;53.766;9.626;2022-10-01T16:12:38;14.60;99.90
12872;DHT22;6504;53.766;9.626;2022-10-01T16:15:23;14.60;99.90
12872;DHT22;6504;53.766;9.626;2022-10-01T16:17:56;14.50;99.90
12872;DHT22;6504;53.766;9.626;2022-10-01T16:20:33;14.50;99.90
12872;DHT22;6504;53.766;9.626;2022-10-01T16:23:39;14.40;99.90
12872;DHT22;6504;53.766;9.626;2022-10-01T16:26:32;14.40;99.90
12872;DHT22;6504;53.766;9.626;2022-10-01T16:29:26;14.30;99.90
12872;DHT22;6504;53.766;9.626;2022-10-01T16:31:54;14.30;99.90
12872;DHT22;6504;53.766;9.626;2022-10-01T16:34:25;14.20;99.90
12872;DHT22;6504;53.766;9.626;2022-10-01T16:36:53;14.20;99.90
12872;DHT22;6504;53.766;9.626;2022-10-01T16:39:21;14.20;99.90
12872;DHT22;6504;53.766;9.626;2022-10-01T16:41:51;14.10;99.90
12872;DHT22;6504;53.766;9.626;2022-10-01T16:44:41;14.10;99.90